createdAt,value
2024-04-19T00:00:54.303Z,67.49
2024-04-19T00:03:42.218Z,60.50
2024-04-19T00:06:10.570Z,53.13
2024-04-19T00:08:38.222Z,51.47
2024-04-19T00:11:05.950Z,52.42
2024-04-19T00:13:33.779Z,53.33
2024-04-19T00:16:01.468Z,54.33
2024-04-19T00:18:29.346Z,55.26
2024-04-19T00:20:57.368Z,55.82
2024-04-19T00:23:25.431Z,56.36
2024-04-19T00:25:54.956Z,56.71
2024-04-19T00:28:40.825Z,56.94
2024-04-19T00:31:09.239Z,57.23
2024-04-19T00:33:37.472Z,57.73
2024-04-19T00:36:05.495Z,58.50
2024-04-19T00:38:33.361Z,58.88
2024-04-19T00:41:01.158Z,59.09
2024-04-19T00:43:28.857Z,59.31
2024-04-19T00:45:56.947Z,59.30
2024-04-19T00:48:26.392Z,59.80
2024-04-19T00:50:59.379Z,60.28
2024-04-19T00:53:34.254Z,60.85
2024-04-19T00:56:21.124Z,60.98
2024-04-19T00:58:48.929Z,61.30
2024-04-19T01:01:17.579Z,61.71
2024-04-19T01:03:45.440Z,61.92
2024-04-19T01:06:13.086Z,65.73
2024-04-19T01:08:40.905Z,66.54
2024-04-19T01:11:28.704Z,61.00
2024-04-19T01:13:56.365Z,54.78
2024-04-19T01:16:23.976Z,52.69
2024-04-19T01:18:54.359Z,53.32
2024-04-19T01:21:23.176Z,54.36
2024-04-19T01:23:54.664Z,55.57
2024-04-19T01:26:22.647Z,56.44
2024-04-19T01:28:50.317Z,57.08
2024-04-19T01:31:18.091Z,57.63
2024-04-19T01:33:45.883Z,58.18
2024-04-19T01:36:13.546Z,58.26
2024-04-19T01:38:50.215Z,58.98
2024-04-19T01:41:17.913Z,59.36
2024-04-19T01:43:45.689Z,59.78
2024-04-19T01:46:13.326Z,59.98
2024-04-19T01:48:40.935Z,60.35
2024-04-19T01:51:08.622Z,60.56
2024-04-19T01:53:36.427Z,60.64
2024-04-19T01:56:04.322Z,60.80
2024-04-19T01:58:40.945Z,60.76
2024-04-19T02:01:09.115Z,61.03
2024-04-19T02:03:40.703Z,61.30
2024-04-19T02:06:09.501Z,61.85
2024-04-19T02:08:37.269Z,61.87
2024-04-19T02:11:05.625Z,61.85
2024-04-19T02:13:33.675Z,61.98
2024-04-19T02:16:01.583Z,62.07
2024-04-19T02:18:29.403Z,64.41
2024-04-19T02:20:59.280Z,67.25
2024-04-19T02:23:36.130Z,62.60
2024-04-19T02:26:07.633Z,56.47
2024-04-19T02:28:59.557Z,54.15
2024-04-19T02:31:27.458Z,54.51
2024-04-19T02:33:55.325Z,55.60
2024-04-19T02:36:23.239Z,56.36
2024-04-19T02:38:50.883Z,57.28
2024-04-19T02:41:18.534Z,57.88
2024-04-19T02:43:47.324Z,58.64
2024-04-19T02:46:18.225Z,59.26
2024-04-19T02:48:47.471Z,59.77
2024-04-19T02:51:15.214Z,65.93
2024-04-19T02:53:43.808Z,68.81
2024-04-19T02:56:11.705Z,60.81
2024-04-19T02:58:40.837Z,55.21
2024-04-19T03:01:08.571Z,53.26
2024-04-19T03:03:36.453Z,53.95
2024-04-19T03:06:04.846Z,55.04
2024-04-19T03:08:32.565Z,56.53
2024-04-19T03:11:06.778Z,57.51
2024-04-19T03:13:34.521Z,58.10
2024-04-19T03:16:09.614Z,58.76
2024-04-19T03:18:43.453Z,59.30
2024-04-19T03:21:11.390Z,60.37
2024-04-19T03:23:39.199Z,60.82
2024-04-19T03:26:07.083Z,61.37
2024-04-19T03:28:34.796Z,61.69
2024-04-19T03:31:02.367Z,64.26
2024-04-19T03:33:30.186Z,67.36
2024-04-19T03:35:58.281Z,63.21
2024-04-19T03:38:26.402Z,56.91
2024-04-19T03:40:55.368Z,54.30
2024-04-19T03:43:24.733Z,54.40
2024-04-19T03:45:52.492Z,55.09
2024-04-19T03:48:20.218Z,55.79
2024-04-19T03:50:48.102Z,56.76
2024-04-19T03:53:15.896Z,57.31
2024-04-19T03:55:43.516Z,57.75
2024-04-19T03:58:11.158Z,58.24
2024-04-19T04:00:42.385Z,58.78
2024-04-19T04:03:10.199Z,59.51
2024-04-19T04:05:40.619Z,59.83
2024-04-19T04:08:08.589Z,60.58
2024-04-19T04:10:36.626Z,60.98
2024-04-19T04:13:04.544Z,61.48
2024-04-19T04:15:32.913Z,63.49
2024-04-19T04:18:02.872Z,68.30
2024-04-19T04:20:30.642Z,65.52
2024-04-19T04:22:58.224Z,61.71
2024-04-19T04:25:25.833Z,54.79
2024-04-19T04:27:53.487Z,52.96
2024-04-19T04:30:21.136Z,53.19
2024-04-19T04:32:48.781Z,54.24
2024-04-19T04:35:16.607Z,55.30
2024-04-19T04:37:44.190Z,55.90
2024-04-19T04:40:11.956Z,56.53
2024-04-19T04:42:40.090Z,57.58
2024-04-19T04:45:08.058Z,58.13
2024-04-19T04:47:36.171Z,58.46
2024-04-19T04:50:04.007Z,59.49
2024-04-19T04:52:32.337Z,60.14
2024-04-19T04:55:00.040Z,60.58
2024-04-19T04:57:27.741Z,60.88
2024-04-19T04:59:55.414Z,61.19
2024-04-19T05:02:23.084Z,61.46
2024-04-19T05:04:51.961Z,65.18
2024-04-19T05:07:23.860Z,67.79
2024-04-19T05:09:52.723Z,62.63
2024-04-19T05:12:20.522Z,57.27
2024-04-19T05:14:48.169Z,54.72
2024-04-19T05:17:16.051Z,54.97
2024-04-19T05:19:43.725Z,55.97
2024-04-19T05:22:11.520Z,56.29
2024-04-19T05:24:39.200Z,57.05
2024-04-19T05:27:06.847Z,57.67
2024-04-19T05:29:34.422Z,58.02
2024-04-19T05:32:02.081Z,58.49
2024-04-19T05:34:30.236Z,58.88
2024-04-19T05:36:58.628Z,59.79
2024-04-19T05:39:26.291Z,60.07
2024-04-19T05:41:53.882Z,60.62
2024-04-19T05:44:21.531Z,60.80
2024-04-19T05:46:49.418Z,61.37
2024-04-19T05:49:17.117Z,61.84
2024-04-19T05:51:44.824Z,63.52
2024-04-19T05:54:12.587Z,66.30
2024-04-19T05:56:40.239Z,62.23
2024-04-19T05:59:08.114Z,58.26
2024-04-19T06:01:35.827Z,54.71
2024-04-19T06:04:03.647Z,54.81
2024-04-19T06:06:31.290Z,55.76
2024-04-19T06:08:59.081Z,55.76
2024-04-19T06:11:27.809Z,56.33
2024-04-19T06:13:56.011Z,56.37
2024-04-19T06:16:23.771Z,56.75
2024-04-19T06:18:51.574Z,57.50
2024-04-19T06:21:19.388Z,57.99
2024-04-19T06:23:47.038Z,58.07
2024-04-19T06:26:14.664Z,58.54
2024-04-19T06:28:43.710Z,58.55
2024-04-19T06:31:13.332Z,58.73
2024-04-19T06:33:41.518Z,58.71
2024-04-19T06:36:10.416Z,58.85
2024-04-19T06:38:40.436Z,58.85
2024-04-19T06:41:09.412Z,57.94
2024-04-19T06:43:37.092Z,58.09
2024-04-19T06:46:04.863Z,58.40
2024-04-19T06:48:32.729Z,58.28
2024-04-19T06:51:01.136Z,57.61
2024-04-19T06:53:28.868Z,58.43
2024-04-19T06:55:56.461Z,58.74
2024-04-19T06:58:24.248Z,57.84
2024-04-19T07:01:06.040Z,57.68
2024-04-19T07:03:41.382Z,57.30
2024-04-19T07:06:20.012Z,56.70
2024-04-19T07:08:54.854Z,56.76
2024-04-19T07:11:22.662Z,57.12
2024-04-19T07:13:50.958Z,57.13
2024-04-19T07:16:18.703Z,57.33
2024-04-19T07:18:47.287Z,57.66
2024-04-19T07:21:15.203Z,57.24
2024-04-19T07:23:42.995Z,57.34
2024-04-19T07:26:10.801Z,57.08
2024-04-19T07:28:38.539Z,57.16
2024-04-19T07:31:06.269Z,57.30
2024-04-19T07:33:33.955Z,56.86
2024-04-19T07:36:01.601Z,56.21
2024-04-19T07:38:29.352Z,55.97
2024-04-19T07:41:04.103Z,56.07
2024-04-19T07:43:31.886Z,55.89
2024-04-19T07:45:59.536Z,56.16
2024-04-19T07:48:28.520Z,56.05
2024-04-19T07:50:56.419Z,55.36
2024-04-19T07:53:24.052Z,55.05
2024-04-19T07:55:51.639Z,54.51
2024-04-19T07:58:23.932Z,53.29
2024-04-19T08:00:51.812Z,52.72
2024-04-19T08:03:19.530Z,52.85
2024-04-19T08:05:47.575Z,52.74
2024-04-19T08:08:15.294Z,52.58
2024-04-19T08:10:42.978Z,52.08
2024-04-19T08:13:10.616Z,51.89
2024-04-19T08:15:38.891Z,51.54
2024-04-19T08:18:06.842Z,52.14
2024-04-19T08:20:34.580Z,52.44
2024-04-19T08:23:02.396Z,52.54
2024-04-19T08:25:29.973Z,51.65
2024-04-19T08:27:57.801Z,51.33
2024-04-19T08:30:26.209Z,51.27
2024-04-19T08:32:53.852Z,51.08
2024-04-19T08:35:21.476Z,50.62
2024-04-19T08:37:49.460Z,50.29
2024-04-19T08:40:17.151Z,49.86
2024-04-19T08:42:45.444Z,49.63
2024-04-19T08:45:14.543Z,49.27
2024-04-19T08:47:43.708Z,49.07
2024-04-19T08:50:11.751Z,48.87
2024-04-19T08:52:59.480Z,49.03
2024-04-19T08:55:28.829Z,48.15
2024-04-19T08:57:56.661Z,47.89
2024-04-19T09:00:24.420Z,48.14
2024-04-19T09:02:52.885Z,48.43
2024-04-19T09:05:20.523Z,48.64
2024-04-19T09:07:48.485Z,48.96
2024-04-19T09:10:16.090Z,49.23
2024-04-19T09:12:43.751Z,49.79
2024-04-19T09:15:11.377Z,50.09
2024-04-19T09:17:39.723Z,50.55
2024-04-19T09:20:07.868Z,49.99
2024-04-19T09:22:35.593Z,49.59
2024-04-19T09:25:03.308Z,49.75
2024-04-19T09:27:31.208Z,48.88
2024-04-19T09:30:02.179Z,48.78
2024-04-19T09:32:30.847Z,49.97
2024-04-19T09:34:58.659Z,51.56
2024-04-19T09:37:27.502Z,51.91
2024-04-19T09:39:55.207Z,52.98
2024-04-19T09:42:25.911Z,52.23
2024-04-19T09:44:53.919Z,52.10
2024-04-19T09:47:22.791Z,51.13
2024-04-19T09:49:51.697Z,50.33
2024-04-19T09:52:20.914Z,48.10
2024-04-19T09:55:05.625Z,45.93
2024-04-19T09:57:35.594Z,45.91
2024-04-19T10:00:04.694Z,45.06
2024-04-19T10:02:40.243Z,45.12
2024-04-19T10:05:08.277Z,44.84
2024-04-19T10:07:37.989Z,44.97
2024-04-19T10:10:06.432Z,45.14
2024-04-19T10:12:34.773Z,43.29
2024-04-19T10:15:02.465Z,43.55
2024-04-19T10:17:30.327Z,44.48
2024-04-19T10:19:58.464Z,45.13
2024-04-19T10:22:30.109Z,44.90
2024-04-19T10:25:01.624Z,45.05
2024-04-19T10:27:30.503Z,44.65
2024-04-19T10:29:59.925Z,44.63
2024-04-19T10:32:27.588Z,42.34
2024-04-19T10:34:55.217Z,43.20
2024-04-19T10:37:22.978Z,44.05
2024-04-19T10:39:50.678Z,44.93
2024-04-19T10:42:24.999Z,46.28
2024-04-19T10:44:52.801Z,46.90
2024-04-19T10:47:21.991Z,47.14
2024-04-19T10:49:49.794Z,46.46
2024-04-19T10:52:23.613Z,46.30
2024-04-19T10:54:52.471Z,46.21
2024-04-19T10:57:20.160Z,45.27
2024-04-19T10:59:47.820Z,44.44
2024-04-19T11:02:17.249Z,44.11
2024-04-19T11:04:45.461Z,43.23
2024-04-19T11:07:13.274Z,42.36
2024-04-19T11:09:40.985Z,41.12
2024-04-19T11:12:09.962Z,40.65
2024-04-19T11:14:37.538Z,40.57
2024-04-19T11:17:05.288Z,39.29
2024-04-19T11:19:34.489Z,38.90
2024-04-19T11:22:02.527Z,35.44
2024-04-19T11:24:31.387Z,34.23
2024-04-19T11:26:59.182Z,34.86
2024-04-19T11:29:27.061Z,35.57
2024-04-19T11:31:55.258Z,35.02
2024-04-19T11:34:31.588Z,36.00
2024-04-19T11:37:05.983Z,36.32
2024-04-19T11:39:34.958Z,35.56
2024-04-19T11:42:02.927Z,35.19
2024-04-19T11:44:30.769Z,35.55
2024-04-19T11:47:08.208Z,36.09
2024-04-19T11:49:35.871Z,36.35
2024-04-19T11:52:03.749Z,36.25
2024-04-19T11:54:32.676Z,36.55
2024-04-19T11:57:00.893Z,36.58
2024-04-19T11:59:28.635Z,36.44
2024-04-19T12:01:57.078Z,36.47
2024-04-19T12:04:24.939Z,36.91
2024-04-19T12:06:52.914Z,37.47
2024-04-19T12:09:20.759Z,37.96
2024-04-19T12:12:19.742Z,38.51
2024-04-19T12:15:23.213Z,39.11
2024-04-19T12:17:27.225Z,40.30
2024-04-19T12:20:00.717Z,40.95
2024-04-19T12:22:34.190Z,41.54
2024-04-19T12:25:04.547Z,41.45
2024-04-19T12:27:33.064Z,41.63
2024-04-19T12:30:00.966Z,41.58
2024-04-19T12:32:29.162Z,41.72
2024-04-19T12:34:56.754Z,42.05
2024-04-19T12:37:24.426Z,42.33
2024-04-19T12:39:52.276Z,42.96
2024-04-19T12:42:19.975Z,43.45
2024-04-19T12:44:50.875Z,43.47
2024-04-19T12:47:18.825Z,43.48
2024-04-19T12:49:46.584Z,43.49
2024-04-19T12:52:14.323Z,43.34
2024-04-19T12:54:41.994Z,43.26
2024-04-19T12:57:09.724Z,43.25
2024-04-19T12:59:37.455Z,42.69
2024-04-19T13:02:07.237Z,42.29
2024-04-19T13:04:35.022Z,41.99
2024-04-19T13:07:02.702Z,41.20
2024-04-19T13:09:30.385Z,40.97
2024-04-19T13:11:58.271Z,40.58
2024-04-19T13:14:26.004Z,40.18
2024-04-19T13:16:53.878Z,40.23
2024-04-19T13:19:21.672Z,40.27
2024-04-19T13:21:49.856Z,39.45
2024-04-19T13:24:19.720Z,40.12
2024-04-19T13:26:47.754Z,39.55
2024-04-19T13:29:15.387Z,40.22
2024-04-19T13:31:45.910Z,40.34
2024-04-19T13:34:16.516Z,39.45
2024-04-19T13:36:44.200Z,39.32
2024-04-19T13:39:11.866Z,38.92
2024-04-19T13:41:40.444Z,38.86
2024-04-19T13:44:09.278Z,39.34
2024-04-19T13:46:37.135Z,39.42
2024-04-19T13:49:04.945Z,38.68
2024-04-19T13:51:33.094Z,39.05
2024-04-19T13:54:00.752Z,39.96
2024-04-19T13:56:31.844Z,41.10
2024-04-19T13:58:59.741Z,42.26
2024-04-19T14:01:31.728Z,42.76
2024-04-19T14:03:59.673Z,43.46
2024-04-19T14:06:28.268Z,44.62
2024-04-19T14:08:56.054Z,46.28
2024-04-19T14:11:24.856Z,47.52
2024-04-19T14:13:52.573Z,48.31
2024-04-19T14:16:24.188Z,49.10
2024-04-19T14:18:54.219Z,49.15
2024-04-19T14:21:22.500Z,49.34
2024-04-19T14:23:50.121Z,50.02
2024-04-19T14:26:19.538Z,50.12
2024-04-19T14:28:47.517Z,50.49
2024-04-19T14:31:15.090Z,50.48
2024-04-19T14:33:44.636Z,50.66
2024-04-19T14:36:12.663Z,50.95
2024-04-19T14:38:40.304Z,51.24
2024-04-19T14:41:08.229Z,51.06
2024-04-19T14:43:38.591Z,51.21
2024-04-19T14:46:08.520Z,51.24
2024-04-19T14:48:36.475Z,51.39
2024-04-19T14:51:05.163Z,51.54
2024-04-19T14:53:32.759Z,51.53
2024-04-19T14:56:01.465Z,51.41
2024-04-19T14:58:29.285Z,51.21
2024-04-19T15:00:59.002Z,51.09
2024-04-19T15:03:26.807Z,51.06
2024-04-19T15:05:57.345Z,51.32
2024-04-19T15:08:25.118Z,51.70
2024-04-19T15:10:53.651Z,52.64
2024-04-19T15:13:22.911Z,53.07
2024-04-19T15:15:50.618Z,53.49
2024-04-19T15:18:18.258Z,53.50
2024-04-19T15:20:45.918Z,54.35
2024-04-19T15:23:13.690Z,54.88
2024-04-19T15:25:43.835Z,55.95
2024-04-19T15:28:13.001Z,56.67
2024-04-19T15:30:43.869Z,57.88
2024-04-19T15:33:11.583Z,57.73
2024-04-19T15:35:39.492Z,58.41
2024-04-19T15:38:10.911Z,58.82
2024-04-19T15:40:39.791Z,58.74
2024-04-19T15:43:07.954Z,59.07
2024-04-19T15:45:35.616Z,59.53
2024-04-19T15:48:03.520Z,59.38
2024-04-19T15:50:31.511Z,58.95
2024-04-19T15:52:59.611Z,59.07
2024-04-19T15:55:40.120Z,58.54
2024-04-19T15:58:08.060Z,58.53
2024-04-19T16:00:38.584Z,58.26
2024-04-19T16:03:06.340Z,57.88
2024-04-19T16:05:38.191Z,58.08
2024-04-19T16:08:05.997Z,58.06
2024-04-19T16:10:33.654Z,57.86
2024-04-19T16:13:01.405Z,57.63
2024-04-19T16:15:29.757Z,57.22
2024-04-19T16:17:57.861Z,57.34
2024-04-19T16:20:25.570Z,56.95
2024-04-19T16:22:53.194Z,57.01
2024-04-19T16:25:21.064Z,57.16
2024-04-19T16:27:48.873Z,57.09
2024-04-19T16:30:18.197Z,57.26
2024-04-19T16:32:46.297Z,57.14
2024-04-19T16:35:14.146Z,57.07
2024-04-19T16:37:46.017Z,57.36
2024-04-19T16:40:13.656Z,57.64
2024-04-19T16:42:41.631Z,58.07
2024-04-19T16:45:09.358Z,58.86
2024-04-19T16:47:37.189Z,59.23
2024-04-19T16:50:05.801Z,60.26
2024-04-19T16:52:33.367Z,61.00
2024-04-19T16:55:01.065Z,61.26
2024-04-19T16:57:28.736Z,61.58
2024-04-19T16:59:56.435Z,61.87
2024-04-19T17:02:24.215Z,62.06
2024-04-19T17:04:52.259Z,63.95
2024-04-19T17:07:19.897Z,64.43
2024-04-19T17:09:47.663Z,63.56
2024-04-19T17:12:15.367Z,58.31
2024-04-19T17:14:43.572Z,54.93
2024-04-19T17:17:11.835Z,56.10
2024-04-19T17:19:39.533Z,56.15
2024-04-19T17:22:07.164Z,57.30
2024-04-19T17:24:34.833Z,57.76
2024-04-19T17:27:02.467Z,58.74
2024-04-19T17:29:30.061Z,60.02
2024-04-19T17:31:58.408Z,60.11
2024-04-19T17:34:26.675Z,60.85
2024-04-19T17:36:59.444Z,60.87
2024-04-19T17:39:27.178Z,61.20
2024-04-19T17:41:54.878Z,61.62
2024-04-19T17:44:22.558Z,63.30
2024-04-19T17:46:51.329Z,66.77
2024-04-19T17:49:21.688Z,63.98
2024-04-19T17:51:50.533Z,59.64
2024-04-19T17:54:19.626Z,55.27
2024-04-19T17:56:47.276Z,53.82
2024-04-19T17:59:15.990Z,54.27
2024-04-19T18:01:43.661Z,54.79
2024-04-19T18:04:11.444Z,55.96
2024-04-19T18:06:40.476Z,56.58
2024-04-19T18:09:09.517Z,57.76
2024-04-19T18:11:37.223Z,58.23
2024-04-19T18:14:04.779Z,59.35
2024-04-19T18:16:32.712Z,60.08
2024-04-19T18:19:00.481Z,60.61
2024-04-19T18:21:28.264Z,60.89
2024-04-19T18:23:57.336Z,62.03
2024-04-19T18:26:25.870Z,64.78
2024-04-19T18:28:53.765Z,66.12
2024-04-19T18:31:21.424Z,60.14
2024-04-19T18:34:00.120Z,56.24
2024-04-19T18:36:28.059Z,55.31
2024-04-19T18:38:55.606Z,56.57
2024-04-19T18:41:25.121Z,57.26
2024-04-19T18:43:52.726Z,58.10
2024-04-19T18:46:21.308Z,59.13
2024-04-19T18:48:49.080Z,59.88
2024-04-19T18:51:16.727Z,60.58
2024-04-19T18:53:47.890Z,61.53
2024-04-19T18:56:15.599Z,61.88
2024-04-19T18:58:44.590Z,63.43
2024-04-19T19:01:15.794Z,65.91
2024-04-19T19:03:47.663Z,63.62
2024-04-19T19:06:16.995Z,57.50
2024-04-19T19:08:44.667Z,54.92
2024-04-19T19:11:15.451Z,55.08
2024-04-19T19:13:43.697Z,55.99
2024-04-19T19:16:11.832Z,57.56
2024-04-19T19:18:39.846Z,58.12
2024-04-19T19:21:08.730Z,59.12
2024-04-19T19:23:36.474Z,59.13
2024-04-19T19:26:07.781Z,59.88
2024-04-19T19:28:35.394Z,60.01
2024-04-19T19:31:03.162Z,60.19
2024-04-19T19:33:33.697Z,60.75
2024-04-19T19:36:04.201Z,60.99
2024-04-19T19:38:38.035Z,61.22
2024-04-19T19:41:05.893Z,61.53
2024-04-19T19:43:37.474Z,64.11
2024-04-19T19:46:07.050Z,66.35
2024-04-19T19:48:35.303Z,63.55
2024-04-19T19:51:16.463Z,60.65
2024-04-19T19:53:45.102Z,56.26
2024-04-19T19:56:17.188Z,54.37
2024-04-19T19:58:45.142Z,54.93
2024-04-19T20:01:31.270Z,55.56
2024-04-19T20:04:33.718Z,56.14
2024-04-19T20:07:03.076Z,56.80
2024-04-19T20:09:30.728Z,58.14
2024-04-19T20:11:58.385Z,58.96
2024-04-19T20:14:26.946Z,59.42
2024-04-19T20:16:54.906Z,59.62
2024-04-19T20:19:22.703Z,60.26
2024-04-19T20:21:50.345Z,60.59
2024-04-19T20:24:17.912Z,60.85
2024-04-19T20:26:45.669Z,61.19
2024-04-19T20:29:15.582Z,61.56
2024-04-19T20:35:01.584Z,65.39
2024-04-19T20:37:29.450Z,66.02
2024-04-19T20:39:57.167Z,63.50
2024-04-19T20:42:24.856Z,59.66
2024-04-19T20:44:52.447Z,54.64
2024-04-19T20:47:20.115Z,53.34
2024-04-19T20:49:47.757Z,53.79
2024-04-19T20:52:15.439Z,54.61
2024-04-19T20:54:43.119Z,55.40
2024-04-19T20:57:10.926Z,56.18
2024-04-19T20:59:38.543Z,56.76
2024-04-19T21:02:06.640Z,57.51
2024-04-19T21:04:36.106Z,58.11
2024-04-19T21:07:03.777Z,58.58
2024-04-19T21:09:31.485Z,59.04
2024-04-19T21:11:59.344Z,59.53
2024-04-19T21:14:27.008Z,59.73
2024-04-19T21:16:54.662Z,60.14
2024-04-19T21:19:22.456Z,60.43
2024-04-19T21:21:50.205Z,60.78
2024-04-19T21:24:17.959Z,61.18
2024-04-19T21:26:45.544Z,61.34
2024-04-19T21:29:13.401Z,61.54
2024-04-19T21:31:40.998Z,61.79
2024-04-19T21:34:09.705Z,62.08
2024-04-19T21:36:40.601Z,65.82
2024-04-19T21:39:08.545Z,67.55
2024-04-19T21:41:36.169Z,63.09
2024-04-19T21:44:03.827Z,57.34
2024-04-19T21:46:31.985Z,54.70
2024-04-19T21:48:59.694Z,55.28
2024-04-19T21:51:27.366Z,56.03
2024-04-19T21:53:55.022Z,56.75
2024-04-19T21:56:23.107Z,57.59
2024-04-19T21:58:51.036Z,58.18
2024-04-19T22:01:18.736Z,58.67
2024-04-19T22:03:46.481Z,59.39
2024-04-19T22:06:14.754Z,59.88
2024-04-19T22:08:42.499Z,60.32
2024-04-19T22:11:10.308Z,60.83
2024-04-19T22:13:38.369Z,61.27
2024-04-19T22:16:06.960Z,61.35
2024-04-19T22:18:36.374Z,61.54
2024-04-19T22:21:08.711Z,61.93
2024-04-19T22:23:36.301Z,64.73
2024-04-19T22:26:07.613Z,67.09
2024-04-19T22:28:36.512Z,62.14
2024-04-19T22:31:07.531Z,56.68
2024-04-19T22:33:35.703Z,54.63
2024-04-19T22:36:09.304Z,54.87
2024-04-19T22:38:38.127Z,55.47
2024-04-19T22:41:06.074Z,56.40
2024-04-19T22:43:47.904Z,57.21
2024-04-19T22:46:15.597Z,57.66
2024-04-19T22:48:43.200Z,58.15
2024-04-19T22:51:10.982Z,58.78
2024-04-19T22:53:38.595Z,59.32
2024-04-19T22:56:06.461Z,59.73
2024-04-19T22:58:34.123Z,60.25
2024-04-19T23:01:07.480Z,60.59
2024-04-19T23:03:35.387Z,60.94
2024-04-19T23:06:10.528Z,61.33
2024-04-19T23:08:38.207Z,62.27
2024-04-19T23:11:06.019Z,66.35
2024-04-19T23:14:02.198Z,65.34
2024-04-19T23:16:29.815Z,60.37
2024-04-19T23:18:58.330Z,56.62
2024-04-19T23:21:26.029Z,54.81
2024-04-19T23:23:53.736Z,55.23
2024-04-19T23:26:21.432Z,55.83
2024-04-19T23:28:49.117Z,56.40
2024-04-19T23:31:18.657Z,57.42
2024-04-19T23:33:46.434Z,58.19
2024-04-19T23:36:14.054Z,58.63
2024-04-19T23:38:41.687Z,59.21
2024-04-19T23:41:09.948Z,59.62
2024-04-19T23:43:37.539Z,60.15
2024-04-19T23:46:05.252Z,60.75
2024-04-19T23:48:33.041Z,60.95
2024-04-19T23:51:00.601Z,61.12
2024-04-19T23:53:28.228Z,61.59
2024-04-19T23:55:55.833Z,61.67
2024-04-19T23:58:23.424Z,63.78
